sensor_id;sensor_type;location;lat;lon;timestamp;P1;durP1;ratioP1;P2;durP2;ratioP2
52730;SDS011;38624;53.242;6.974;2022-08-19T00:01:46;9.48;;;6.10;;
52730;SDS011;38624;53.242;6.974;2022-08-19T00:04:14;10.82;;;6.07;;
52730;SDS011;38624;53.242;6.974;2022-08-19T00:06:43;7.22;;;6.03;;
52730;SDS011;38624;53.242;6.974;2022-08-19T00:09:11;9.68;;;5.90;;
52730;SDS011;38624;53.242;6.974;2022-08-19T00:11:38;7.45;;;6.00;;
52730;SDS011;38624;53.242;6.974;2022-08-19T00:14:05;7.90;;;5.85;;
52730;SDS011;38624;53.242;6.974;2022-08-19T00:16:34;8.10;;;6.10;;
52730;SDS011;38624;53.242;6.974;2022-08-19T00:19:01;7.78;;;6.00;;
52730;SDS011;38624;53.242;6.974;2022-08-19T00:21:26;8.87;;;6.30;;
52730;SDS011;38624;53.242;6.974;2022-08-19T00:23:53;10.67;;;6.73;;
52730;SDS011;38624;53.242;6.974;2022-08-19T00:26:19;11.60;;;6.20;;
52730;SDS011;38624;53.242;6.974;2022-08-19T00:28:45;11.25;;;6.28;;
52730;SDS011;38624;53.242;6.974;2022-08-19T00:31:12;11.95;;;6.40;;
52730;SDS011;38624;53.242;6.974;2022-08-19T00:33:37;11.57;;;6.33;;
52730;SDS011;38624;53.242;6.974;2022-08-19T00:36:04;12.57;;;6.43;;
52730;SDS011;38624;53.242;6.974;2022-08-19T00:38:34;8.65;;;6.40;;
52730;SDS011;38624;53.242;6.974;2022-08-19T00:41:01;8.98;;;6.57;;
52730;SDS011;38624;53.242;6.974;2022-08-19T00:43:27;8.57;;;6.63;;
52730;SDS011;38624;53.242;6.974;2022-08-19T00:45:53;7.57;;;6.50;;
52730;SDS011;38624;53.242;6.974;2022-08-19T00:48:19;9.68;;;6.35;;
52730;SDS011;38624;53.242;6.974;2022-08-19T00:50:45;9.07;;;6.50;;
52730;SDS011;38624;53.242;6.974;2022-08-19T00:53:14;9.23;;;6.03;;
52730;SDS011;38624;53.242;6.974;2022-08-19T00:55:47;13.18;;;6.30;;
52730;SDS011;38624;53.242;6.974;2022-08-19T00:58:16;7.40;;;5.93;;
52730;SDS011;38624;53.242;6.974;2022-08-19T01:00:45;8.07;;;6.00;;
52730;SDS011;38624;53.242;6.974;2022-08-19T01:03:13;6.50;;;5.82;;
52730;SDS011;38624;53.242;6.974;2022-08-19T01:05:42;6.25;;;5.65;;
52730;SDS011;38624;53.242;6.974;2022-08-19T01:08:09;8.27;;;5.65;;
52730;SDS011;38624;53.242;6.974;2022-08-19T01:10:58;8.23;;;6.00;;
52730;SDS011;38624;53.242;6.974;2022-08-19T01:13:25;8.73;;;5.88;;
52730;SDS011;38624;53.242;6.974;2022-08-19T01:15:55;11.25;;;5.53;;
52730;SDS011;38624;53.242;6.974;2022-08-19T01:18:23;8.43;;;6.03;;
52730;SDS011;38624;53.242;6.974;2022-08-19T01:20:52;10.43;;;5.95;;
52730;SDS011;38624;53.242;6.974;2022-08-19T01:23:21;9.07;;;5.63;;
52730;SDS011;38624;53.242;6.974;2022-08-19T01:25:48;9.30;;;6.60;;
52730;SDS011;38624;53.242;6.974;2022-08-19T01:28:26;10.20;;;5.43;;
52730;SDS011;38624;53.242;6.974;2022-08-19T01:30:52;8.23;;;5.43;;
52730;SDS011;38624;53.242;6.974;2022-08-19T01:33:19;8.40;;;5.90;;
52730;SDS011;38624;53.242;6.974;2022-08-19T01:35:45;8.20;;;6.10;;
52730;SDS011;38624;53.242;6.974;2022-08-19T01:38:23;9.10;;;6.10;;
52730;SDS011;38624;53.242;6.974;2022-08-19T01:40:51;6.97;;;5.73;;
52730;SDS011;38624;53.242;6.974;2022-08-19T01:43:17;9.50;;;6.03;;
52730;SDS011;38624;53.242;6.974;2022-08-19T01:45:44;7.25;;;5.75;;
52730;SDS011;38624;53.242;6.974;2022-08-19T01:48:11;7.55;;;5.95;;
52730;SDS011;38624;53.242;6.974;2022-08-19T01:50:37;10.43;;;6.30;;
52730;SDS011;38624;53.242;6.974;2022-08-19T01:53:04;10.23;;;6.20;;
52730;SDS011;38624;53.242;6.974;2022-08-19T01:55:32;8.68;;;6.18;;
52730;SDS011;38624;53.242;6.974;2022-08-19T02:02:54;9.02;;;6.10;;
52730;SDS011;38624;53.242;6.974;2022-08-19T02:05:20;10.17;;;6.70;;
52730;SDS011;38624;53.242;6.974;2022-08-19T02:07:46;11.65;;;7.20;;
52730;SDS011;38624;53.242;6.974;2022-08-19T02:10:14;9.65;;;7.03;;
52730;SDS011;38624;53.242;6.974;2022-08-19T02:12:43;9.18;;;6.95;;
52730;SDS011;38624;53.242;6.974;2022-08-19T02:15:09;9.40;;;6.60;;
52730;SDS011;38624;53.242;6.974;2022-08-19T02:17:35;7.95;;;6.45;;
52730;SDS011;38624;53.242;6.974;2022-08-19T02:20:01;7.23;;;5.73;;
52730;SDS011;38624;53.242;6.974;2022-08-19T02:22:27;5.35;;;3.72;;
52730;SDS011;38624;53.242;6.974;2022-08-19T02:24:53;6.03;;;4.13;;
52730;SDS011;38624;53.242;6.974;2022-08-19T02:29:46;9.43;;;5.05;;
52730;SDS011;38624;53.242;6.974;2022-08-19T02:32:13;8.50;;;6.13;;
52730;SDS011;38624;53.242;6.974;2022-08-19T02:34:38;8.13;;;6.93;;
52730;SDS011;38624;53.242;6.974;2022-08-19T02:37:05;10.35;;;7.10;;
52730;SDS011;38624;53.242;6.974;2022-08-19T02:39:31;7.33;;;6.53;;
52730;SDS011;38624;53.242;6.974;2022-08-19T02:41:56;8.33;;;6.10;;
52730;SDS011;38624;53.242;6.974;2022-08-19T02:44:24;9.10;;;6.45;;
52730;SDS011;38624;53.242;6.974;2022-08-19T02:46:49;7.13;;;6.10;;
52730;SDS011;38624;53.242;6.974;2022-08-19T02:49:15;7.10;;;6.33;;
52730;SDS011;38624;53.242;6.974;2022-08-19T02:51:42;7.80;;;6.37;;
52730;SDS011;38624;53.242;6.974;2022-08-19T02:54:10;7.28;;;6.07;;
52730;SDS011;38624;53.242;6.974;2022-08-19T02:56:38;7.43;;;6.00;;
52730;SDS011;38624;53.242;6.974;2022-08-19T02:59:05;7.68;;;6.38;;
52730;SDS011;38624;53.242;6.974;2022-08-19T03:01:35;9.13;;;7.03;;
52730;SDS011;38624;53.242;6.974;2022-08-19T03:04:02;8.32;;;6.68;;
52730;SDS011;38624;53.242;6.974;2022-08-19T03:06:30;9.45;;;6.78;;
52730;SDS011;38624;53.242;6.974;2022-08-19T03:08:56;11.63;;;7.93;;
52730;SDS011;38624;53.242;6.974;2022-08-19T03:11:24;10.35;;;8.20;;
52730;SDS011;38624;53.242;6.974;2022-08-19T03:13:52;10.50;;;8.60;;
52730;SDS011;38624;53.242;6.974;2022-08-19T03:16:19;10.32;;;8.02;;
52730;SDS011;38624;53.242;6.974;2022-08-19T03:18:46;8.60;;;7.60;;
52730;SDS011;38624;53.242;6.974;2022-08-19T03:21:16;9.27;;;8.13;;
52730;SDS011;38624;53.242;6.974;2022-08-19T03:23:44;11.20;;;8.13;;
52730;SDS011;38624;53.242;6.974;2022-08-19T03:26:10;9.75;;;8.55;;
52730;SDS011;38624;53.242;6.974;2022-08-19T03:28:36;11.37;;;8.80;;
52730;SDS011;38624;53.242;6.974;2022-08-19T03:31:04;11.00;;;9.05;;
52730;SDS011;38624;53.242;6.974;2022-08-19T03:33:33;12.35;;;8.50;;
52730;SDS011;38624;53.242;6.974;2022-08-19T03:38:37;14.52;;;10.05;;
52730;SDS011;38624;53.242;6.974;2022-08-19T03:41:09;12.85;;;9.93;;
52730;SDS011;38624;53.242;6.974;2022-08-19T03:43:39;13.88;;;9.95;;
52730;SDS011;38624;53.242;6.974;2022-08-19T03:46:09;13.25;;;10.15;;
52730;SDS011;38624;53.242;6.974;2022-08-19T03:48:38;13.32;;;9.50;;
52730;SDS011;38624;53.242;6.974;2022-08-19T03:51:05;13.02;;;10.43;;
52730;SDS011;38624;53.242;6.974;2022-08-19T03:53:33;14.48;;;11.30;;
52730;SDS011;38624;53.242;6.974;2022-08-19T03:56:00;13.88;;;10.75;;
52730;SDS011;38624;53.242;6.974;2022-08-19T03:58:27;14.27;;;10.52;;
52730;SDS011;38624;53.242;6.974;2022-08-19T04:00:57;13.25;;;10.52;;
52730;SDS011;38624;53.242;6.974;2022-08-19T04:03:24;12.85;;;9.50;;
52730;SDS011;38624;53.242;6.974;2022-08-19T04:05:51;13.02;;;9.20;;
52730;SDS011;38624;53.242;6.974;2022-08-19T04:08:18;12.13;;;9.55;;
52730;SDS011;38624;53.242;6.974;2022-08-19T04:10:47;11.65;;;9.25;;
52730;SDS011;38624;53.242;6.974;2022-08-19T04:13:14;11.90;;;9.25;;
52730;SDS011;38624;53.242;6.974;2022-08-19T04:15:42;14.80;;;9.68;;
52730;SDS011;38624;53.242;6.974;2022-08-19T04:18:10;11.88;;;9.15;;
52730;SDS011;38624;53.242;6.974;2022-08-19T04:20:46;11.98;;;8.75;;
52730;SDS011;38624;53.242;6.974;2022-08-19T04:23:13;12.23;;;8.95;;
52730;SDS011;38624;53.242;6.974;2022-08-19T04:25:40;11.77;;;8.85;;
52730;SDS011;38624;53.242;6.974;2022-08-19T04:28:07;15.23;;;10.80;;
52730;SDS011;38624;53.242;6.974;2022-08-19T04:30:45;16.48;;;12.10;;
52730;SDS011;38624;53.242;6.974;2022-08-19T04:33:13;13.75;;;10.77;;
52730;SDS011;38624;53.242;6.974;2022-08-19T04:35:41;13.07;;;10.38;;
52730;SDS011;38624;53.242;6.974;2022-08-19T04:38:10;12.70;;;9.95;;
52730;SDS011;38624;53.242;6.974;2022-08-19T04:40:40;13.05;;;10.18;;
52730;SDS011;38624;53.242;6.974;2022-08-19T04:43:26;13.30;;;10.77;;
52730;SDS011;38624;53.242;6.974;2022-08-19T04:45:52;17.60;;;10.60;;
52730;SDS011;38624;53.242;6.974;2022-08-19T04:48:18;17.30;;;11.57;;
52730;SDS011;38624;53.242;6.974;2022-08-19T04:50:51;16.77;;;11.40;;
52730;SDS011;38624;53.242;6.974;2022-08-19T04:53:23;15.38;;;10.05;;
52730;SDS011;38624;53.242;6.974;2022-08-19T04:55:57;10.40;;;8.10;;
52730;SDS011;38624;53.242;6.974;2022-08-19T04:58:24;14.13;;;8.38;;
52730;SDS011;38624;53.242;6.974;2022-08-19T05:00:51;12.00;;;7.85;;
52730;SDS011;38624;53.242;6.974;2022-08-19T05:03:18;12.30;;;9.25;;
52730;SDS011;38624;53.242;6.974;2022-08-19T05:05:44;12.33;;;8.87;;
52730;SDS011;38624;53.242;6.974;2022-08-19T05:08:14;12.85;;;8.88;;
52730;SDS011;38624;53.242;6.974;2022-08-19T05:10:44;14.10;;;8.73;;
52730;SDS011;38624;53.242;6.974;2022-08-19T05:13:12;13.45;;;8.43;;
52730;SDS011;38624;53.242;6.974;2022-08-19T05:15:38;11.20;;;8.30;;
52730;SDS011;38624;53.242;6.974;2022-08-19T05:18:03;10.43;;;8.37;;
52730;SDS011;38624;53.242;6.974;2022-08-19T05:20:48;13.57;;;9.13;;
52730;SDS011;38624;53.242;6.974;2022-08-19T05:23:32;10.13;;;8.00;;
52730;SDS011;38624;53.242;6.974;2022-08-19T05:25:58;13.83;;;8.77;;
52730;SDS011;38624;53.242;6.974;2022-08-19T05:28:24;20.87;;;7.90;;
52730;SDS011;38624;53.242;6.974;2022-08-19T05:30:50;10.87;;;8.10;;
52730;SDS011;38624;53.242;6.974;2022-08-19T05:33:16;11.83;;;8.10;;
52730;SDS011;38624;53.242;6.974;2022-08-19T05:35:43;12.13;;;8.02;;
52730;SDS011;38624;53.242;6.974;2022-08-19T05:38:09;11.63;;;8.07;;
52730;SDS011;38624;53.242;6.974;2022-08-19T05:43:06;15.10;;;7.88;;
52730;SDS011;38624;53.242;6.974;2022-08-19T05:45:37;12.25;;;7.88;;
52730;SDS011;38624;53.242;6.974;2022-08-19T05:48:04;11.55;;;8.70;;
52730;SDS011;38624;53.242;6.974;2022-08-19T05:50:30;15.27;;;9.93;;
52730;SDS011;38624;53.242;6.974;2022-08-19T05:52:55;13.47;;;9.80;;
52730;SDS011;38624;53.242;6.974;2022-08-19T05:55:21;12.20;;;9.20;;
52730;SDS011;38624;53.242;6.974;2022-08-19T05:57:47;13.10;;;10.30;;
52730;SDS011;38624;53.242;6.974;2022-08-19T06:00:13;17.70;;;10.73;;
52730;SDS011;38624;53.242;6.974;2022-08-19T06:02:39;14.27;;;10.30;;
52730;SDS011;38624;53.242;6.974;2022-08-19T06:05:06;14.87;;;10.30;;
52730;SDS011;38624;53.242;6.974;2022-08-19T06:07:38;15.63;;;10.88;;
52730;SDS011;38624;53.242;6.974;2022-08-19T06:10:06;15.70;;;11.32;;
52730;SDS011;38624;53.242;6.974;2022-08-19T06:12:33;14.30;;;10.15;;
52730;SDS011;38624;53.242;6.974;2022-08-19T06:15:01;14.88;;;10.20;;
52730;SDS011;38624;53.242;6.974;2022-08-19T06:17:32;14.20;;;10.55;;
52730;SDS011;38624;53.242;6.974;2022-08-19T06:19:59;14.63;;;10.57;;
52730;SDS011;38624;53.242;6.974;2022-08-19T06:22:25;14.45;;;10.30;;
52730;SDS011;38624;53.242;6.974;2022-08-19T06:24:52;14.40;;;10.93;;
52730;SDS011;38624;53.242;6.974;2022-08-19T06:27:19;14.48;;;10.88;;
52730;SDS011;38624;53.242;6.974;2022-08-19T06:29:45;15.02;;;11.00;;
52730;SDS011;38624;53.242;6.974;2022-08-19T06:32:12;16.50;;;11.70;;
52730;SDS011;38624;53.242;6.974;2022-08-19T06:34:41;19.67;;;12.00;;
52730;SDS011;38624;53.242;6.974;2022-08-19T06:37:07;15.82;;;10.10;;
52730;SDS011;38624;53.242;6.974;2022-08-19T06:39:34;16.48;;;12.20;;
52730;SDS011;38624;53.242;6.974;2022-08-19T06:42:03;16.10;;;11.45;;
52730;SDS011;38624;53.242;6.974;2022-08-19T06:44:33;15.45;;;11.05;;
52730;SDS011;38624;53.242;6.974;2022-08-19T06:47:03;15.25;;;11.23;;
52730;SDS011;38624;53.242;6.974;2022-08-19T06:49:29;12.82;;;10.57;;
52730;SDS011;38624;53.242;6.974;2022-08-19T06:51:58;14.98;;;10.75;;
52730;SDS011;38624;53.242;6.974;2022-08-19T06:54:25;16.08;;;10.82;;
52730;SDS011;38624;53.242;6.974;2022-08-19T06:56:53;14.05;;;11.23;;
52730;SDS011;38624;53.242;6.974;2022-08-19T06:59:20;13.13;;;10.10;;
52730;SDS011;38624;53.242;6.974;2022-08-19T07:01:51;12.82;;;10.75;;
52730;SDS011;38624;53.242;6.974;2022-08-19T07:04:19;13.23;;;10.70;;
52730;SDS011;38624;53.242;6.974;2022-08-19T07:06:47;16.20;;;10.70;;
52730;SDS011;38624;53.242;6.974;2022-08-19T07:09:15;13.65;;;10.55;;
52730;SDS011;38624;53.242;6.974;2022-08-19T07:11:44;12.90;;;9.77;;
52730;SDS011;38624;53.242;6.974;2022-08-19T07:14:11;12.88;;;10.55;;
52730;SDS011;38624;53.242;6.974;2022-08-19T07:16:37;12.25;;;9.38;;
52730;SDS011;38624;53.242;6.974;2022-08-19T07:19:03;12.40;;;9.77;;
52730;SDS011;38624;53.242;6.974;2022-08-19T07:21:28;18.03;;;10.23;;
52730;SDS011;38624;53.242;6.974;2022-08-19T07:23:55;12.50;;;9.23;;
52730;SDS011;38624;53.242;6.974;2022-08-19T07:26:24;13.77;;;9.52;;
52730;SDS011;38624;53.242;6.974;2022-08-19T07:28:57;12.73;;;10.10;;
52730;SDS011;38624;53.242;6.974;2022-08-19T07:31:24;14.25;;;9.18;;
52730;SDS011;38624;53.242;6.974;2022-08-19T07:33:52;12.88;;;9.20;;
52730;SDS011;38624;53.242;6.974;2022-08-19T07:36:21;14.88;;;9.95;;
52730;SDS011;38624;53.242;6.974;2022-08-19T07:38:50;12.85;;;9.98;;
52730;SDS011;38624;53.242;6.974;2022-08-19T07:41:18;12.00;;;9.40;;
52730;SDS011;38624;53.242;6.974;2022-08-19T07:43:46;12.68;;;9.85;;
52730;SDS011;38624;53.242;6.974;2022-08-19T07:46:12;15.48;;;10.32;;
52730;SDS011;38624;53.242;6.974;2022-08-19T07:48:39;15.13;;;10.07;;
52730;SDS011;38624;53.242;6.974;2022-08-19T07:51:07;14.07;;;9.90;;
52730;SDS011;38624;53.242;6.974;2022-08-19T07:53:34;14.38;;;10.00;;
52730;SDS011;38624;53.242;6.974;2022-08-19T07:56:02;13.25;;;9.32;;
52730;SDS011;38624;53.242;6.974;2022-08-19T07:58:33;15.00;;;9.68;;
52730;SDS011;38624;53.242;6.974;2022-08-19T08:01:01;14.35;;;10.07;;
52730;SDS011;38624;53.242;6.974;2022-08-19T08:03:29;14.50;;;10.98;;
52730;SDS011;38624;53.242;6.974;2022-08-19T08:06:14;14.57;;;9.70;;
52730;SDS011;38624;53.242;6.974;2022-08-19T08:08:58;14.75;;;9.98;;
52730;SDS011;38624;53.242;6.974;2022-08-19T08:11:38;13.02;;;9.73;;
52730;SDS011;38624;53.242;6.974;2022-08-19T08:14:05;12.27;;;8.93;;
52730;SDS011;38624;53.242;6.974;2022-08-19T08:16:35;12.57;;;8.80;;
52730;SDS011;38624;53.242;6.974;2022-08-19T08:19:05;11.65;;;9.70;;
52730;SDS011;38624;53.242;6.974;2022-08-19T08:21:32;11.98;;;9.30;;
52730;SDS011;38624;53.242;6.974;2022-08-19T08:23:59;14.55;;;9.20;;
52730;SDS011;38624;53.242;6.974;2022-08-19T08:26:25;11.03;;;8.63;;
52730;SDS011;38624;53.242;6.974;2022-08-19T08:28:51;12.23;;;9.32;;
52730;SDS011;38624;53.242;6.974;2022-08-19T08:31:17;15.65;;;9.75;;
52730;SDS011;38624;53.242;6.974;2022-08-19T08:33:45;12.45;;;10.15;;
52730;SDS011;38624;53.242;6.974;2022-08-19T08:38:39;15.07;;;10.20;;
52730;SDS011;38624;53.242;6.974;2022-08-19T08:41:09;13.02;;;9.45;;
52730;SDS011;38624;53.242;6.974;2022-08-19T08:43:44;13.35;;;9.07;;
52730;SDS011;38624;53.242;6.974;2022-08-19T08:46:13;10.55;;;8.68;;
52730;SDS011;38624;53.242;6.974;2022-08-19T08:51:20;12.77;;;8.85;;
52730;SDS011;38624;53.242;6.974;2022-08-19T08:53:59;17.63;;;9.57;;
52730;SDS011;38624;53.242;6.974;2022-08-19T08:56:29;12.20;;;9.38;;
52730;SDS011;38624;53.242;6.974;2022-08-19T08:58:57;12.05;;;9.32;;
52730;SDS011;38624;53.242;6.974;2022-08-19T09:01:26;9.63;;;8.13;;
52730;SDS011;38624;53.242;6.974;2022-08-19T09:03:52;13.02;;;8.70;;
52730;SDS011;38624;53.242;6.974;2022-08-19T09:17:20;9.75;;;8.27;;
52730;SDS011;38624;53.242;6.974;2022-08-19T09:22:38;9.05;;;8.05;;
52730;SDS011;38624;53.242;6.974;2022-08-19T09:25:06;9.88;;;7.78;;
52730;SDS011;38624;53.242;6.974;2022-08-19T09:27:35;11.07;;;7.90;;
52730;SDS011;38624;53.242;6.974;2022-08-19T09:30:03;10.63;;;8.00;;
52730;SDS011;38624;53.242;6.974;2022-08-19T09:32:30;8.57;;;7.63;;
52730;SDS011;38624;53.242;6.974;2022-08-19T09:34:55;8.70;;;7.40;;
52730;SDS011;38624;53.242;6.974;2022-08-19T09:37:23;8.77;;;6.57;;
52730;SDS011;38624;53.242;6.974;2022-08-19T09:39:50;9.13;;;6.80;;
52730;SDS011;38624;53.242;6.974;2022-08-19T09:42:16;9.18;;;7.03;;
52730;SDS011;38624;53.242;6.974;2022-08-19T09:44:42;8.77;;;6.35;;
52730;SDS011;38624;53.242;6.974;2022-08-19T09:47:09;5.93;;;5.10;;
52730;SDS011;38624;53.242;6.974;2022-08-19T09:49:36;8.02;;;5.93;;
52730;SDS011;38624;53.242;6.974;2022-08-19T09:52:04;7.85;;;5.30;;
52730;SDS011;38624;53.242;6.974;2022-08-19T09:54:35;11.27;;;7.25;;
52730;SDS011;38624;53.242;6.974;2022-08-19T09:59:28;8.52;;;5.20;;
52730;SDS011;38624;53.242;6.974;2022-08-19T10:01:53;7.28;;;5.22;;
52730;SDS011;38624;53.242;6.974;2022-08-19T10:04:19;8.63;;;5.90;;
52730;SDS011;38624;53.242;6.974;2022-08-19T10:07:08;6.60;;;4.60;;
52730;SDS011;38624;53.242;6.974;2022-08-19T10:09:34;6.70;;;4.70;;
52730;SDS011;38624;53.242;6.974;2022-08-19T10:12:00;8.17;;;4.80;;
52730;SDS011;38624;53.242;6.974;2022-08-19T10:14:27;9.75;;;4.95;;
52730;SDS011;38624;53.242;6.974;2022-08-19T10:16:53;8.17;;;5.93;;
52730;SDS011;38624;53.242;6.974;2022-08-19T10:19:19;6.63;;;5.03;;
52730;SDS011;38624;53.242;6.974;2022-08-19T10:21:47;6.30;;;3.90;;
52730;SDS011;38624;53.242;6.974;2022-08-19T10:24:13;6.90;;;5.00;;
52730;SDS011;38624;53.242;6.974;2022-08-19T10:26:39;4.63;;;3.43;;
52730;SDS011;38624;53.242;6.974;2022-08-19T10:29:12;6.07;;;3.63;;
52730;SDS011;38624;53.242;6.974;2022-08-19T10:31:41;6.20;;;4.25;;
52730;SDS011;38624;53.242;6.974;2022-08-19T10:34:07;5.93;;;4.65;;
52730;SDS011;38624;53.242;6.974;2022-08-19T10:36:35;5.70;;;4.57;;
52730;SDS011;38624;53.242;6.974;2022-08-19T10:39:06;5.78;;;4.30;;
52730;SDS011;38624;53.242;6.974;2022-08-19T10:41:35;7.68;;;3.60;;
52730;SDS011;38624;53.242;6.974;2022-08-19T10:44:05;4.68;;;3.90;;
52730;SDS011;38624;53.242;6.974;2022-08-19T10:46:33;6.47;;;4.05;;
52730;SDS011;38624;53.242;6.974;2022-08-19T10:49:03;7.28;;;3.67;;
52730;SDS011;38624;53.242;6.974;2022-08-19T10:51:30;4.05;;;3.20;;
52730;SDS011;38624;53.242;6.974;2022-08-19T10:54:15;7.13;;;3.72;;
52730;SDS011;38624;53.242;6.974;2022-08-19T10:56:41;4.97;;;3.28;;
52730;SDS011;38624;53.242;6.974;2022-08-19T10:59:16;4.00;;;3.15;;
52730;SDS011;38624;53.242;6.974;2022-08-19T11:01:58;4.15;;;3.20;;
52730;SDS011;38624;53.242;6.974;2022-08-19T11:04:25;3.95;;;3.05;;
52730;SDS011;38624;53.242;6.974;2022-08-19T11:06:51;5.70;;;2.70;;
52730;SDS011;38624;53.242;6.974;2022-08-19T11:09:19;6.65;;;3.30;;
52730;SDS011;38624;53.242;6.974;2022-08-19T11:11:49;3.40;;;2.53;;
52730;SDS011;38624;53.242;6.974;2022-08-19T11:14:16;4.75;;;3.50;;
52730;SDS011;38624;53.242;6.974;2022-08-19T11:16:44;3.58;;;2.90;;
52730;SDS011;38624;53.242;6.974;2022-08-19T11:19:10;5.20;;;3.58;;
52730;SDS011;38624;53.242;6.974;2022-08-19T11:21:39;5.68;;;3.53;;
52730;SDS011;38624;53.242;6.974;2022-08-19T11:24:12;3.50;;;3.03;;
52730;SDS011;38624;53.242;6.974;2022-08-19T11:26:41;4.90;;;3.22;;
52730;SDS011;38624;53.242;6.974;2022-08-19T11:29:09;4.88;;;4.10;;
52730;SDS011;38624;53.242;6.974;2022-08-19T11:31:43;4.57;;;3.58;;
52730;SDS011;38624;53.242;6.974;2022-08-19T11:34:12;4.28;;;3.10;;
52730;SDS011;38624;53.242;6.974;2022-08-19T11:36:42;5.50;;;3.72;;
52730;SDS011;38624;53.242;6.974;2022-08-19T11:39:10;7.35;;;3.75;;
52730;SDS011;38624;53.242;6.974;2022-08-19T11:41:37;5.85;;;3.63;;
52730;SDS011;38624;53.242;6.974;2022-08-19T11:44:04;5.28;;;3.53;;
52730;SDS011;38624;53.242;6.974;2022-08-19T11:46:33;5.05;;;3.70;;
52730;SDS011;38624;53.242;6.974;2022-08-19T11:49:00;4.50;;;3.47;;
52730;SDS011;38624;53.242;6.974;2022-08-19T11:51:28;6.30;;;4.22;;
52730;SDS011;38624;53.242;6.974;2022-08-19T11:53:55;4.05;;;3.50;;
52730;SDS011;38624;53.242;6.974;2022-08-19T11:56:22;5.05;;;4.30;;
52730;SDS011;38624;53.242;6.974;2022-08-19T11:58:50;5.00;;;3.80;;
52730;SDS011;38624;53.242;6.974;2022-08-19T12:01:17;4.20;;;3.80;;
52730;SDS011;38624;53.242;6.974;2022-08-19T12:03:45;4.22;;;3.35;;
52730;SDS011;38624;53.242;6.974;2022-08-19T12:06:13;5.68;;;3.83;;
52730;SDS011;38624;53.242;6.974;2022-08-19T12:08:41;4.53;;;3.70;;
52730;SDS011;38624;53.242;6.974;2022-08-19T12:11:08;4.32;;;3.70;;
52730;SDS011;38624;53.242;6.974;2022-08-19T12:13:34;4.97;;;4.10;;
52730;SDS011;38624;53.242;6.974;2022-08-19T12:16:01;6.20;;;3.70;;
52730;SDS011;38624;53.242;6.974;2022-08-19T12:18:37;4.55;;;3.83;;
52730;SDS011;38624;53.242;6.974;2022-08-19T12:21:12;6.35;;;3.97;;
52730;SDS011;38624;53.242;6.974;2022-08-19T12:23:42;7.75;;;5.15;;
52730;SDS011;38624;53.242;6.974;2022-08-19T12:26:10;7.30;;;6.35;;
52730;SDS011;38624;53.242;6.974;2022-08-19T12:31:02;7.80;;;4.82;;
52730;SDS011;38624;53.242;6.974;2022-08-19T12:33:28;5.72;;;5.15;;
52730;SDS011;38624;53.242;6.974;2022-08-19T12:35:54;7.28;;;5.13;;
52730;SDS011;38624;53.242;6.974;2022-08-19T12:38:25;6.70;;;5.68;;
52730;SDS011;38624;53.242;6.974;2022-08-19T12:40:51;5.82;;;5.22;;
52730;SDS011;38624;53.242;6.974;2022-08-19T12:43:17;5.35;;;4.72;;
52730;SDS011;38624;53.242;6.974;2022-08-19T12:45:45;8.73;;;5.78;;
52730;SDS011;38624;53.242;6.974;2022-08-19T12:48:11;5.88;;;5.07;;
52730;SDS011;38624;53.242;6.974;2022-08-19T12:50:40;7.38;;;5.13;;
52730;SDS011;38624;53.242;6.974;2022-08-19T12:53:07;5.60;;;5.00;;
52730;SDS011;38624;53.242;6.974;2022-08-19T12:55:33;4.95;;;4.47;;
52730;SDS011;38624;53.242;6.974;2022-08-19T12:57:59;6.53;;;5.13;;
52730;SDS011;38624;53.242;6.974;2022-08-19T13:00:26;7.93;;;6.68;;
52730;SDS011;38624;53.242;6.974;2022-08-19T13:02:53;7.50;;;4.88;;
52730;SDS011;38624;53.242;6.974;2022-08-19T13:05:20;9.75;;;6.68;;
52730;SDS011;38624;53.242;6.974;2022-08-19T13:07:48;6.78;;;5.63;;
52730;SDS011;38624;53.242;6.974;2022-08-19T13:10:17;6.97;;;5.90;;
52730;SDS011;38624;53.242;6.974;2022-08-19T13:12:45;6.63;;;4.80;;
52730;SDS011;38624;53.242;6.974;2022-08-19T13:15:12;10.68;;;7.28;;
52730;SDS011;38624;53.242;6.974;2022-08-19T13:17:39;6.60;;;5.43;;
52730;SDS011;38624;53.242;6.974;2022-08-19T13:22:35;5.93;;;4.82;;
52730;SDS011;38624;53.242;6.974;2022-08-19T13:25:02;8.35;;;5.60;;
52730;SDS011;38624;53.242;6.974;2022-08-19T13:27:30;6.00;;;5.30;;
52730;SDS011;38624;53.242;6.974;2022-08-19T13:32:40;7.50;;;6.15;;
52730;SDS011;38624;53.242;6.974;2022-08-19T13:35:25;6.72;;;6.03;;
52730;SDS011;38624;53.242;6.974;2022-08-19T13:37:50;9.30;;;7.13;;
52730;SDS011;38624;53.242;6.974;2022-08-19T13:40:17;6.55;;;5.70;;
52730;SDS011;38624;53.242;6.974;2022-08-19T13:42:49;8.20;;;6.93;;
52730;SDS011;38624;53.242;6.974;2022-08-19T13:45:19;8.80;;;7.85;;
52730;SDS011;38624;53.242;6.974;2022-08-19T13:47:47;8.13;;;7.32;;
52730;SDS011;38624;53.242;6.974;2022-08-19T13:50:18;9.95;;;7.95;;
52730;SDS011;38624;53.242;6.974;2022-08-19T13:52:45;8.60;;;7.40;;
52730;SDS011;38624;53.242;6.974;2022-08-19T13:55:12;9.10;;;8.18;;
52730;SDS011;38624;53.242;6.974;2022-08-19T13:57:39;9.60;;;6.72;;
52730;SDS011;38624;53.242;6.974;2022-08-19T14:00:08;8.57;;;7.15;;
52730;SDS011;38624;53.242;6.974;2022-08-19T14:02:37;8.90;;;7.97;;
52730;SDS011;38624;53.242;6.974;2022-08-19T14:05:04;9.82;;;8.82;;
52730;SDS011;38624;53.242;6.974;2022-08-19T14:07:31;10.15;;;7.93;;
52730;SDS011;38624;53.242;6.974;2022-08-19T14:09:57;18.38;;;12.23;;
52730;SDS011;38624;53.242;6.974;2022-08-19T14:12:23;20.98;;;12.35;;
52730;SDS011;38624;53.242;6.974;2022-08-19T14:14:49;16.80;;;12.35;;
52730;SDS011;38624;53.242;6.974;2022-08-19T14:17:15;14.85;;;11.40;;
52730;SDS011;38624;53.242;6.974;2022-08-19T14:19:41;15.75;;;11.88;;
52730;SDS011;38624;53.242;6.974;2022-08-19T14:22:07;16.30;;;11.63;;
52730;SDS011;38624;53.242;6.974;2022-08-19T14:24:33;18.67;;;12.93;;
52730;SDS011;38624;53.242;6.974;2022-08-19T14:26:58;21.80;;;13.60;;
52730;SDS011;38624;53.242;6.974;2022-08-19T14:29:25;17.50;;;12.68;;
52730;SDS011;38624;53.242;6.974;2022-08-19T14:31:52;16.88;;;12.35;;
52730;SDS011;38624;53.242;6.974;2022-08-19T14:34:18;13.93;;;12.32;;
52730;SDS011;38624;53.242;6.974;2022-08-19T14:36:44;17.13;;;12.48;;
52730;SDS011;38624;53.242;6.974;2022-08-19T14:39:10;16.75;;;13.57;;
52730;SDS011;38624;53.242;6.974;2022-08-19T14:41:36;16.73;;;13.38;;
52730;SDS011;38624;53.242;6.974;2022-08-19T14:44:06;19.05;;;14.50;;
52730;SDS011;38624;53.242;6.974;2022-08-19T14:46:35;17.83;;;13.45;;
52730;SDS011;38624;53.242;6.974;2022-08-19T14:49:00;17.58;;;13.02;;
52730;SDS011;38624;53.242;6.974;2022-08-19T14:53:52;15.60;;;12.38;;
52730;SDS011;38624;53.242;6.974;2022-08-19T14:56:20;16.38;;;12.85;;
52730;SDS011;38624;53.242;6.974;2022-08-19T14:58:47;13.77;;;11.55;;
52730;SDS011;38624;53.242;6.974;2022-08-19T15:01:16;15.00;;;11.90;;
52730;SDS011;38624;53.242;6.974;2022-08-19T15:03:44;13.93;;;12.13;;
52730;SDS011;38624;53.242;6.974;2022-08-19T15:08:37;16.25;;;12.27;;
52730;SDS011;38624;53.242;6.974;2022-08-19T15:11:07;14.32;;;10.73;;
52730;SDS011;38624;53.242;6.974;2022-08-19T15:13:46;13.38;;;11.13;;
52730;SDS011;38624;53.242;6.974;2022-08-19T15:16:13;12.63;;;10.65;;
52730;SDS011;38624;53.242;6.974;2022-08-19T15:18:42;10.88;;;8.85;;
52730;SDS011;38624;53.242;6.974;2022-08-19T15:21:12;13.40;;;10.15;;
52730;SDS011;38624;53.242;6.974;2022-08-19T15:23:43;10.13;;;9.02;;
52730;SDS011;38624;53.242;6.974;2022-08-19T15:26:10;14.10;;;8.50;;
52730;SDS011;38624;53.242;6.974;2022-08-19T15:28:37;13.70;;;8.93;;
52730;SDS011;38624;53.242;6.974;2022-08-19T15:31:03;10.63;;;8.15;;